sensor_id;sensor_type;location;lat;lon;timestamp;P1;durP1;ratioP1;P2;durP2;ratioP2
34136;SDS011;20414;50.860;4.382;2022-08-03T00:01:42;5.93;;;1.30;;
34136;SDS011;20414;50.860;4.382;2022-08-03T00:04:08;5.57;;;1.10;;
34136;SDS011;20414;50.860;4.382;2022-08-03T00:06:35;4.70;;;0.98;;
34136;SDS011;20414;50.860;4.382;2022-08-03T00:09:01;8.32;;;1.20;;
34136;SDS011;20414;50.860;4.382;2022-08-03T00:11:28;4.57;;;1.10;;
34136;SDS011;20414;50.860;4.382;2022-08-03T00:13:54;4.35;;;1.20;;
34136;SDS011;20414;50.860;4.382;2022-08-03T00:16:19;3.78;;;1.10;;
34136;SDS011;20414;50.860;4.382;2022-08-03T00:18:45;4.55;;;1.23;;
34136;SDS011;20414;50.860;4.382;2022-08-03T00:21:11;5.68;;;0.90;;
34136;SDS011;20414;50.860;4.382;2022-08-03T00:23:37;6.97;;;1.33;;
34136;SDS011;20414;50.860;4.382;2022-08-03T00:26:03;6.15;;;1.30;;
34136;SDS011;20414;50.860;4.382;2022-08-03T00:28:28;4.45;;;1.02;;
34136;SDS011;20414;50.860;4.382;2022-08-03T00:30:54;3.92;;;1.23;;
34136;SDS011;20414;50.860;4.382;2022-08-03T00:33:20;4.63;;;1.23;;
34136;SDS011;20414;50.860;4.382;2022-08-03T00:35:46;7.68;;;1.30;;
34136;SDS011;20414;50.860;4.382;2022-08-03T00:38:12;2.47;;;1.17;;
34136;SDS011;20414;50.860;4.382;2022-08-03T00:40:38;5.13;;;1.00;;
34136;SDS011;20414;50.860;4.382;2022-08-03T00:43:05;9.80;;;1.45;;
34136;SDS011;20414;50.860;4.382;2022-08-03T00:45:32;7.78;;;1.60;;
34136;SDS011;20414;50.860;4.382;2022-08-03T00:48:00;6.72;;;1.35;;
34136;SDS011;20414;50.860;4.382;2022-08-03T00:50:26;6.65;;;1.45;;
34136;SDS011;20414;50.860;4.382;2022-08-03T00:52:54;5.10;;;1.40;;
34136;SDS011;20414;50.860;4.382;2022-08-03T00:55:22;8.00;;;1.30;;
34136;SDS011;20414;50.860;4.382;2022-08-03T00:57:48;5.53;;;1.10;;
34136;SDS011;20414;50.860;4.382;2022-08-03T01:00:16;9.00;;;1.25;;
34136;SDS011;20414;50.860;4.382;2022-08-03T01:02:45;4.80;;;1.20;;
34136;SDS011;20414;50.860;4.382;2022-08-03T01:05:11;8.95;;;1.48;;
34136;SDS011;20414;50.860;4.382;2022-08-03T01:21:17;6.60;;;1.67;;
34136;SDS011;20414;50.860;4.382;2022-08-03T01:26:43;6.65;;;1.63;;
34136;SDS011;20414;50.860;4.382;2022-08-03T01:37:51;6.35;;;1.58;;
34136;SDS011;20414;50.860;4.382;2022-08-03T01:40:21;10.80;;;1.85;;
34136;SDS011;20414;50.860;4.382;2022-08-03T01:42:49;4.18;;;1.20;;
34136;SDS011;20414;50.860;4.382;2022-08-03T01:45:16;6.85;;;1.70;;
34136;SDS011;20414;50.860;4.382;2022-08-03T01:47:44;13.68;;;1.70;;
34136;SDS011;20414;50.860;4.382;2022-08-03T01:50:12;7.75;;;1.45;;
34136;SDS011;20414;50.860;4.382;2022-08-03T01:52:39;8.05;;;1.65;;
34136;SDS011;20414;50.860;4.382;2022-08-03T01:55:08;7.15;;;1.40;;
34136;SDS011;20414;50.860;4.382;2022-08-03T01:57:35;4.40;;;1.52;;
34136;SDS011;20414;50.860;4.382;2022-08-03T02:00:03;7.93;;;1.40;;
34136;SDS011;20414;50.860;4.382;2022-08-03T02:02:33;4.97;;;1.20;;
34136;SDS011;20414;50.860;4.382;2022-08-03T02:05:02;8.70;;;1.67;;
34136;SDS011;20414;50.860;4.382;2022-08-03T02:07:30;8.52;;;1.45;;
34136;SDS011;20414;50.860;4.382;2022-08-03T02:09:57;5.93;;;1.40;;
34136;SDS011;20414;50.860;4.382;2022-08-03T02:12:25;6.53;;;1.38;;
34136;SDS011;20414;50.860;4.382;2022-08-03T02:14:53;5.05;;;1.23;;
34136;SDS011;20414;50.860;4.382;2022-08-03T02:17:21;7.65;;;1.20;;
34136;SDS011;20414;50.860;4.382;2022-08-03T02:19:49;7.63;;;1.60;;
34136;SDS011;20414;50.860;4.382;2022-08-03T02:22:15;3.65;;;1.38;;
34136;SDS011;20414;50.860;4.382;2022-08-03T02:24:42;6.22;;;1.55;;
34136;SDS011;20414;50.860;4.382;2022-08-03T02:27:19;7.53;;;1.40;;
34136;SDS011;20414;50.860;4.382;2022-08-03T02:29:48;4.78;;;1.77;;
34136;SDS011;20414;50.860;4.382;2022-08-03T02:32:19;6.03;;;1.52;;
34136;SDS011;20414;50.860;4.382;2022-08-03T02:34:49;4.63;;;1.20;;
34136;SDS011;20414;50.860;4.382;2022-08-03T02:37:17;7.50;;;1.73;;
34136;SDS011;20414;50.860;4.382;2022-08-03T02:39:44;5.07;;;1.33;;
34136;SDS011;20414;50.860;4.382;2022-08-03T02:42:11;4.75;;;1.40;;
34136;SDS011;20414;50.860;4.382;2022-08-03T02:44:39;6.40;;;1.23;;
34136;SDS011;20414;50.860;4.382;2022-08-03T02:47:11;7.13;;;1.35;;
34136;SDS011;20414;50.860;4.382;2022-08-03T02:49:40;3.72;;;1.40;;
34136;SDS011;20414;50.860;4.382;2022-08-03T02:52:08;8.05;;;1.63;;
34136;SDS011;20414;50.860;4.382;2022-08-03T02:54:35;7.18;;;1.52;;
34136;SDS011;20414;50.860;4.382;2022-08-03T02:57:05;8.52;;;1.42;;
34136;SDS011;20414;50.860;4.382;2022-08-03T02:59:32;5.25;;;1.27;;
34136;SDS011;20414;50.860;4.382;2022-08-03T03:01:58;7.00;;;1.65;;
34136;SDS011;20414;50.860;4.382;2022-08-03T03:04:26;4.88;;;1.40;;
34136;SDS011;20414;50.860;4.382;2022-08-03T03:06:54;5.15;;;1.48;;
34136;SDS011;20414;50.860;4.382;2022-08-03T03:09:20;2.53;;;1.20;;
34136;SDS011;20414;50.860;4.382;2022-08-03T03:11:46;7.15;;;1.42;;
34136;SDS011;20414;50.860;4.382;2022-08-03T03:14:13;8.80;;;1.20;;
34136;SDS011;20414;50.860;4.382;2022-08-03T03:16:40;3.15;;;1.30;;
34136;SDS011;20414;50.860;4.382;2022-08-03T03:19:08;5.18;;;1.38;;
34136;SDS011;20414;50.860;4.382;2022-08-03T03:21:37;3.35;;;1.48;;
34136;SDS011;20414;50.860;4.382;2022-08-03T03:24:03;2.85;;;1.45;;
34136;SDS011;20414;50.860;4.382;2022-08-03T03:26:30;6.43;;;1.45;;
34136;SDS011;20414;50.860;4.382;2022-08-03T03:28:56;3.45;;;1.35;;
34136;SDS011;20414;50.860;4.382;2022-08-03T03:31:23;6.35;;;1.45;;
34136;SDS011;20414;50.860;4.382;2022-08-03T03:33:48;7.72;;;1.50;;
34136;SDS011;20414;50.860;4.382;2022-08-03T03:36:15;5.32;;;1.50;;
34136;SDS011;20414;50.860;4.382;2022-08-03T03:38:40;5.95;;;1.23;;
34136;SDS011;20414;50.860;4.382;2022-08-03T03:41:06;5.65;;;1.65;;
34136;SDS011;20414;50.860;4.382;2022-08-03T03:43:32;7.82;;;1.58;;
34136;SDS011;20414;50.860;4.382;2022-08-03T03:45:58;4.72;;;1.65;;
34136;SDS011;20414;50.860;4.382;2022-08-03T03:48:24;5.10;;;1.45;;
34136;SDS011;20414;50.860;4.382;2022-08-03T03:50:50;4.93;;;1.38;;
34136;SDS011;20414;50.860;4.382;2022-08-03T03:53:16;4.97;;;1.38;;
34136;SDS011;20414;50.860;4.382;2022-08-03T03:55:42;4.25;;;1.30;;
34136;SDS011;20414;50.860;4.382;2022-08-03T03:58:08;7.43;;;1.52;;
34136;SDS011;20414;50.860;4.382;2022-08-03T04:00:34;6.28;;;1.33;;
34136;SDS011;20414;50.860;4.382;2022-08-03T04:02:59;5.20;;;1.20;;
34136;SDS011;20414;50.860;4.382;2022-08-03T04:05:25;3.53;;;1.33;;
34136;SDS011;20414;50.860;4.382;2022-08-03T04:08:11;4.82;;;1.20;;
34136;SDS011;20414;50.860;4.382;2022-08-03T04:13:36;5.80;;;1.48;;
34136;SDS011;20414;50.860;4.382;2022-08-03T04:16:08;4.75;;;1.40;;
34136;SDS011;20414;50.860;4.382;2022-08-03T04:18:37;3.10;;;1.37;;
34136;SDS011;20414;50.860;4.382;2022-08-03T04:21:07;4.43;;;1.17;;
34136;SDS011;20414;50.860;4.382;2022-08-03T04:23:34;5.07;;;1.60;;
34136;SDS011;20414;50.860;4.382;2022-08-03T04:26:04;3.45;;;1.30;;
34136;SDS011;20414;50.860;4.382;2022-08-03T04:28:33;4.43;;;1.52;;
34136;SDS011;20414;50.860;4.382;2022-08-03T04:31:02;5.35;;;1.70;;
34136;SDS011;20414;50.860;4.382;2022-08-03T04:33:30;4.47;;;1.52;;
34136;SDS011;20414;50.860;4.382;2022-08-03T04:36:00;7.28;;;1.88;;
34136;SDS011;20414;50.860;4.382;2022-08-03T04:38:28;4.63;;;1.45;;
34136;SDS011;20414;50.860;4.382;2022-08-03T04:40:55;3.40;;;1.80;;
34136;SDS011;20414;50.860;4.382;2022-08-03T04:43:22;3.63;;;1.60;;
34136;SDS011;20414;50.860;4.382;2022-08-03T04:45:49;5.50;;;1.75;;
34136;SDS011;20414;50.860;4.382;2022-08-03T04:48:17;5.53;;;1.25;;
34136;SDS011;20414;50.860;4.382;2022-08-03T04:50:44;7.70;;;1.75;;
34136;SDS011;20414;50.860;4.382;2022-08-03T04:53:11;4.15;;;1.50;;
34136;SDS011;20414;50.860;4.382;2022-08-03T04:55:37;5.05;;;1.42;;
34136;SDS011;20414;50.860;4.382;2022-08-03T04:58:02;5.50;;;1.45;;
34136;SDS011;20414;50.860;4.382;2022-08-03T05:00:28;4.93;;;1.75;;
34136;SDS011;20414;50.860;4.382;2022-08-03T05:02:54;6.60;;;1.52;;
34136;SDS011;20414;50.860;4.382;2022-08-03T05:05:20;3.35;;;1.45;;
34136;SDS011;20414;50.860;4.382;2022-08-03T05:07:46;4.47;;;1.40;;
34136;SDS011;20414;50.860;4.382;2022-08-03T05:10:12;4.63;;;1.48;;
34136;SDS011;20414;50.860;4.382;2022-08-03T05:12:39;8.20;;;1.58;;
34136;SDS011;20414;50.860;4.382;2022-08-03T05:15:06;7.43;;;1.45;;
34136;SDS011;20414;50.860;4.382;2022-08-03T05:17:32;4.47;;;1.40;;
34136;SDS011;20414;50.860;4.382;2022-08-03T05:19:58;6.13;;;1.60;;
34136;SDS011;20414;50.860;4.382;2022-08-03T05:22:24;7.15;;;1.83;;
34136;SDS011;20414;50.860;4.382;2022-08-03T05:24:50;4.00;;;1.35;;
34136;SDS011;20414;50.860;4.382;2022-08-03T05:27:16;4.78;;;1.55;;
34136;SDS011;20414;50.860;4.382;2022-08-03T05:29:43;4.50;;;1.48;;
34136;SDS011;20414;50.860;4.382;2022-08-03T05:32:10;4.57;;;1.52;;
34136;SDS011;20414;50.860;4.382;2022-08-03T05:34:35;5.90;;;1.63;;
34136;SDS011;20414;50.860;4.382;2022-08-03T05:37:01;6.43;;;1.58;;
34136;SDS011;20414;50.860;4.382;2022-08-03T05:39:27;5.95;;;1.50;;
34136;SDS011;20414;50.860;4.382;2022-08-03T05:41:53;8.05;;;1.83;;
34136;SDS011;20414;50.860;4.382;2022-08-03T05:44:18;4.82;;;1.20;;
34136;SDS011;20414;50.860;4.382;2022-08-03T05:46:44;7.13;;;1.60;;
34136;SDS011;20414;50.860;4.382;2022-08-03T05:49:11;8.15;;;1.42;;
34136;SDS011;20414;50.860;4.382;2022-08-03T05:51:36;6.97;;;1.30;;
34136;SDS011;20414;50.860;4.382;2022-08-03T05:54:02;5.97;;;1.40;;
34136;SDS011;20414;50.860;4.382;2022-08-03T05:56:28;5.18;;;1.45;;
34136;SDS011;20414;50.860;4.382;2022-08-03T05:58:53;3.40;;;1.40;;
34136;SDS011;20414;50.860;4.382;2022-08-03T06:01:19;10.00;;;1.88;;
34136;SDS011;20414;50.860;4.382;2022-08-03T06:03:46;8.02;;;1.45;;
34136;SDS011;20414;50.860;4.382;2022-08-03T06:06:13;5.63;;;1.73;;
34136;SDS011;20414;50.860;4.382;2022-08-03T06:08:39;6.43;;;1.48;;
34136;SDS011;20414;50.860;4.382;2022-08-03T06:11:06;5.82;;;1.42;;
34136;SDS011;20414;50.860;4.382;2022-08-03T06:13:32;4.40;;;1.42;;
34136;SDS011;20414;50.860;4.382;2022-08-03T06:15:58;4.25;;;1.20;;
34136;SDS011;20414;50.860;4.382;2022-08-03T06:18:24;3.40;;;1.30;;
34136;SDS011;20414;50.860;4.382;2022-08-03T06:20:50;3.33;;;1.30;;
34136;SDS011;20414;50.860;4.382;2022-08-03T06:23:16;3.78;;;1.40;;
34136;SDS011;20414;50.860;4.382;2022-08-03T06:25:41;8.88;;;1.67;;
34136;SDS011;20414;50.860;4.382;2022-08-03T06:28:08;3.83;;;1.20;;
34136;SDS011;20414;50.860;4.382;2022-08-03T06:30:33;4.10;;;1.08;;
34136;SDS011;20414;50.860;4.382;2022-08-03T06:33:00;6.47;;;1.42;;
34136;SDS011;20414;50.860;4.382;2022-08-03T06:35:25;6.47;;;1.70;;
34136;SDS011;20414;50.860;4.382;2022-08-03T06:37:52;3.63;;;1.27;;
34136;SDS011;20414;50.860;4.382;2022-08-03T06:40:19;2.97;;;1.27;;
34136;SDS011;20414;50.860;4.382;2022-08-03T06:42:55;4.30;;;1.33;;
34136;SDS011;20414;50.860;4.382;2022-08-03T06:45:22;6.78;;;1.23;;
34136;SDS011;20414;50.860;4.382;2022-08-03T06:47:58;4.78;;;1.30;;
34136;SDS011;20414;50.860;4.382;2022-08-03T06:50:31;3.22;;;1.13;;
34136;SDS011;20414;50.860;4.382;2022-08-03T06:52:58;4.00;;;1.42;;
34136;SDS011;20414;50.860;4.382;2022-08-03T06:55:24;8.80;;;1.38;;
34136;SDS011;20414;50.860;4.382;2022-08-03T06:57:50;1.77;;;0.98;;
34136;SDS011;20414;50.860;4.382;2022-08-03T07:00:16;3.30;;;0.90;;
34136;SDS011;20414;50.860;4.382;2022-08-03T07:02:41;1.58;;;0.70;;
34136;SDS011;20414;50.860;4.382;2022-08-03T07:05:08;2.60;;;1.00;;
34136;SDS011;20414;50.860;4.382;2022-08-03T07:07:34;2.67;;;1.10;;
34136;SDS011;20414;50.860;4.382;2022-08-03T07:10:00;2.88;;;1.00;;
34136;SDS011;20414;50.860;4.382;2022-08-03T07:12:26;2.05;;;0.77;;
34136;SDS011;20414;50.860;4.382;2022-08-03T07:14:54;3.38;;;1.00;;
34136;SDS011;20414;50.860;4.382;2022-08-03T07:17:21;3.00;;;0.80;;
34136;SDS011;20414;50.860;4.382;2022-08-03T07:19:47;2.05;;;0.88;;
34136;SDS011;20414;50.860;4.382;2022-08-03T07:22:12;2.42;;;0.95;;
34136;SDS011;20414;50.860;4.382;2022-08-03T07:24:38;1.60;;;0.77;;
34136;SDS011;20414;50.860;4.382;2022-08-03T07:27:05;1.05;;;0.80;;
34136;SDS011;20414;50.860;4.382;2022-08-03T07:29:33;2.08;;;1.00;;
34136;SDS011;20414;50.860;4.382;2022-08-03T07:31:59;2.67;;;1.00;;
34136;SDS011;20414;50.860;4.382;2022-08-03T07:34:25;1.65;;;0.70;;
34136;SDS011;20414;50.860;4.382;2022-08-03T07:36:51;2.70;;;0.65;;
34136;SDS011;20414;50.860;4.382;2022-08-03T07:39:16;4.15;;;0.90;;
34136;SDS011;20414;50.860;4.382;2022-08-03T07:41:42;1.92;;;0.80;;
34136;SDS011;20414;50.860;4.382;2022-08-03T07:44:08;1.77;;;0.60;;
34136;SDS011;20414;50.860;4.382;2022-08-03T07:46:33;1.40;;;0.65;;
34136;SDS011;20414;50.860;4.382;2022-08-03T07:48:59;4.28;;;0.75;;
34136;SDS011;20414;50.860;4.382;2022-08-03T07:51:25;1.10;;;0.60;;
34136;SDS011;20414;50.860;4.382;2022-08-03T07:53:51;1.48;;;0.80;;
34136;SDS011;20414;50.860;4.382;2022-08-03T07:56:16;1.00;;;0.63;;
34136;SDS011;20414;50.860;4.382;2022-08-03T07:58:43;1.45;;;0.70;;
34136;SDS011;20414;50.860;4.382;2022-08-03T08:01:09;1.40;;;0.80;;
34136;SDS011;20414;50.860;4.382;2022-08-03T08:03:35;1.85;;;0.80;;
34136;SDS011;20414;50.860;4.382;2022-08-03T08:06:00;1.30;;;0.77;;
34136;SDS011;20414;50.860;4.382;2022-08-03T08:08:26;1.40;;;0.80;;
34136;SDS011;20414;50.860;4.382;2022-08-03T08:10:51;1.02;;;0.60;;
34136;SDS011;20414;50.860;4.382;2022-08-03T08:13:17;2.90;;;0.70;;
34136;SDS011;20414;50.860;4.382;2022-08-03T08:15:43;1.55;;;0.77;;
34136;SDS011;20414;50.860;4.382;2022-08-03T08:18:08;1.40;;;0.63;;
34136;SDS011;20414;50.860;4.382;2022-08-03T08:20:34;1.45;;;0.63;;
34136;SDS011;20414;50.860;4.382;2022-08-03T08:23:03;1.35;;;0.50;;
34136;SDS011;20414;50.860;4.382;2022-08-03T08:25:30;1.92;;;0.90;;
34136;SDS011;20414;50.860;4.382;2022-08-03T08:27:56;1.13;;;0.52;;
34136;SDS011;20414;50.860;4.382;2022-08-03T08:30:25;1.30;;;0.73;;
34136;SDS011;20414;50.860;4.382;2022-08-03T08:32:51;1.60;;;0.50;;
34136;SDS011;20414;50.860;4.382;2022-08-03T08:35:17;1.15;;;0.63;;
34136;SDS011;20414;50.860;4.382;2022-08-03T08:37:43;0.70;;;0.50;;
34136;SDS011;20414;50.860;4.382;2022-08-03T08:40:09;2.03;;;0.70;;
34136;SDS011;20414;50.860;4.382;2022-08-03T08:42:37;2.60;;;0.80;;
34136;SDS011;20414;50.860;4.382;2022-08-03T08:45:03;0.90;;;0.68;;
34136;SDS011;20414;50.860;4.382;2022-08-03T08:47:31;1.52;;;0.60;;
34136;SDS011;20414;50.860;4.382;2022-08-03T08:49:58;2.00;;;0.60;;
34136;SDS011;20414;50.860;4.382;2022-08-03T08:52:24;0.95;;;0.50;;
34136;SDS011;20414;50.860;4.382;2022-08-03T08:54:56;1.25;;;0.70;;
34136;SDS011;20414;50.860;4.382;2022-08-03T08:57:25;1.08;;;0.52;;
34136;SDS011;20414;50.860;4.382;2022-08-03T08:59:53;0.98;;;0.60;;
34136;SDS011;20414;50.860;4.382;2022-08-03T09:02:21;0.98;;;0.75;;
34136;SDS011;20414;50.860;4.382;2022-08-03T09:04:48;2.30;;;0.70;;
34136;SDS011;20414;50.860;4.382;2022-08-03T09:07:14;1.38;;;0.63;;
34136;SDS011;20414;50.860;4.382;2022-08-03T09:09:40;1.52;;;0.63;;
34136;SDS011;20414;50.860;4.382;2022-08-03T09:12:07;0.88;;;0.50;;
34136;SDS011;20414;50.860;4.382;2022-08-03T09:14:33;1.17;;;0.60;;
34136;SDS011;20414;50.860;4.382;2022-08-03T09:16:59;1.67;;;0.80;;
34136;SDS011;20414;50.860;4.382;2022-08-03T09:19:27;1.58;;;0.50;;
34136;SDS011;20414;50.860;4.382;2022-08-03T09:22:10;1.10;;;0.60;;
34136;SDS011;20414;50.860;4.382;2022-08-03T09:24:56;1.55;;;0.73;;
34136;SDS011;20414;50.860;4.382;2022-08-03T09:27:27;0.93;;;0.52;;
34136;SDS011;20414;50.860;4.382;2022-08-03T09:29:53;2.25;;;0.60;;
34136;SDS011;20414;50.860;4.382;2022-08-03T09:32:23;1.67;;;0.57;;
34136;SDS011;20414;50.860;4.382;2022-08-03T09:34:51;1.02;;;0.60;;
34136;SDS011;20414;50.860;4.382;2022-08-03T09:37:18;0.90;;;0.50;;
34136;SDS011;20414;50.860;4.382;2022-08-03T09:39:45;0.95;;;0.65;;
34136;SDS011;20414;50.860;4.382;2022-08-03T09:42:15;1.02;;;0.52;;
34136;SDS011;20414;50.860;4.382;2022-08-03T09:44:42;1.17;;;0.55;;
34136;SDS011;20414;50.860;4.382;2022-08-03T09:47:10;1.20;;;0.50;;
34136;SDS011;20414;50.860;4.382;2022-08-03T09:49:38;0.73;;;0.50;;
34136;SDS011;20414;50.860;4.382;2022-08-03T09:52:15;1.23;;;0.47;;
34136;SDS011;20414;50.860;4.382;2022-08-03T09:54:49;0.85;;;0.60;;
34136;SDS011;20414;50.860;4.382;2022-08-03T09:57:22;1.27;;;0.45;;
34136;SDS011;20414;50.860;4.382;2022-08-03T09:59:50;0.80;;;0.45;;
34136;SDS011;20414;50.860;4.382;2022-08-03T10:02:23;0.80;;;0.50;;
34136;SDS011;20414;50.860;4.382;2022-08-03T10:04:50;1.70;;;0.50;;
34136;SDS011;20414;50.860;4.382;2022-08-03T10:07:17;1.30;;;0.60;;
34136;SDS011;20414;50.860;4.382;2022-08-03T10:09:57;1.35;;;0.50;;
34136;SDS011;20414;50.860;4.382;2022-08-03T10:12:24;0.95;;;0.50;;
34136;SDS011;20414;50.860;4.382;2022-08-03T10:14:51;1.10;;;0.60;;
34136;SDS011;20414;50.860;4.382;2022-08-03T10:17:18;0.80;;;0.40;;
34136;SDS011;20414;50.860;4.382;2022-08-03T10:19:45;1.05;;;0.60;;
34136;SDS011;20414;50.860;4.382;2022-08-03T10:24:36;0.82;;;0.50;;
34136;SDS011;20414;50.860;4.382;2022-08-03T10:27:07;0.93;;;0.40;;
34136;SDS011;20414;50.860;4.382;2022-08-03T10:29:38;0.60;;;0.40;;
34136;SDS011;20414;50.860;4.382;2022-08-03T10:32:27;1.55;;;0.45;;
34136;SDS011;20414;50.860;4.382;2022-08-03T10:35:16;1.50;;;0.60;;
34136;SDS011;20414;50.860;4.382;2022-08-03T10:37:44;1.35;;;0.60;;
34136;SDS011;20414;50.860;4.382;2022-08-03T10:40:14;0.95;;;0.47;;
34136;SDS011;20414;50.860;4.382;2022-08-03T10:42:45;1.65;;;0.40;;
34136;SDS011;20414;50.860;4.382;2022-08-03T10:45:17;0.85;;;0.30;;
34136;SDS011;20414;50.860;4.382;2022-08-03T10:47:52;0.80;;;0.60;;
34136;SDS011;20414;50.860;4.382;2022-08-03T10:50:24;0.95;;;0.60;;
34136;SDS011;20414;50.860;4.382;2022-08-03T10:52:54;0.57;;;0.40;;
34136;SDS011;20414;50.860;4.382;2022-08-03T10:58:46;0.95;;;0.50;;
34136;SDS011;20414;50.860;4.382;2022-08-03T11:01:19;0.63;;;0.50;;
34136;SDS011;20414;50.860;4.382;2022-08-03T11:04:16;0.90;;;0.40;;
34136;SDS011;20414;50.860;4.382;2022-08-03T11:06:44;2.25;;;0.40;;
34136;SDS011;20414;50.860;4.382;2022-08-03T11:11:46;0.73;;;0.40;;
34136;SDS011;20414;50.860;4.382;2022-08-03T11:14:14;1.00;;;0.55;;
34136;SDS011;20414;50.860;4.382;2022-08-03T11:16:47;0.55;;;0.47;;
34136;SDS011;20414;50.860;4.382;2022-08-03T11:19:17;0.50;;;0.45;;
34136;SDS011;20414;50.860;4.382;2022-08-03T11:27:23;0.63;;;0.40;;
34136;SDS011;20414;50.860;4.382;2022-08-03T11:40:34;0.50;;;0.30;;
34136;SDS011;20414;50.860;4.382;2022-08-03T11:51:17;0.80;;;0.40;;
34136;SDS011;20414;50.860;4.382;2022-08-03T11:53:44;1.10;;;0.40;;
34136;SDS011;20414;50.860;4.382;2022-08-03T11:56:13;0.50;;;0.40;;
34136;SDS011;20414;50.860;4.382;2022-08-03T11:58:45;0.70;;;0.50;;
34136;SDS011;20414;50.860;4.382;2022-08-03T12:01:17;0.50;;;0.35;;
34136;SDS011;20414;50.860;4.382;2022-08-03T12:03:43;0.60;;;0.40;;
34136;SDS011;20414;50.860;4.382;2022-08-03T12:06:10;0.60;;;0.30;;
34136;SDS011;20414;50.860;4.382;2022-08-03T12:08:37;0.63;;;0.30;;
34136;SDS011;20414;50.860;4.382;2022-08-03T12:11:04;0.35;;;0.30;;
34136;SDS011;20414;50.860;4.382;2022-08-03T12:16:17;1.00;;;0.60;;
34136;SDS011;20414;50.860;4.382;2022-08-03T12:18:43;0.52;;;0.35;;
34136;SDS011;20414;50.860;4.382;2022-08-03T12:21:10;0.32;;;0.30;;
34136;SDS011;20414;50.860;4.382;2022-08-03T12:23:36;0.45;;;0.30;;
34136;SDS011;20414;50.860;4.382;2022-08-03T12:26:04;1.50;;;0.40;;
34136;SDS011;20414;50.860;4.382;2022-08-03T12:28:31;0.88;;;0.40;;
34136;SDS011;20414;50.860;4.382;2022-08-03T12:31:01;0.43;;;0.43;;
34136;SDS011;20414;50.860;4.382;2022-08-03T12:33:30;0.73;;;0.43;;
34136;SDS011;20414;50.860;4.382;2022-08-03T12:36:06;1.48;;;0.35;;
34136;SDS011;20414;50.860;4.382;2022-08-03T12:38:34;0.65;;;0.30;;
34136;SDS011;20414;50.860;4.382;2022-08-03T12:41:06;0.60;;;0.40;;
34136;SDS011;20414;50.860;4.382;2022-08-03T12:43:45;0.80;;;0.25;;
34136;SDS011;20414;50.860;4.382;2022-08-03T12:46:15;0.50;;;0.40;;
34136;SDS011;20414;50.860;4.382;2022-08-03T12:54:08;0.73;;;0.40;;
34136;SDS011;20414;50.860;4.382;2022-08-03T12:59:34;0.40;;;0.20;;
34136;SDS011;20414;50.860;4.382;2022-08-03T13:02:02;0.28;;;0.20;;
34136;SDS011;20414;50.860;4.382;2022-08-03T13:04:32;0.40;;;0.30;;
34136;SDS011;20414;50.860;4.382;2022-08-03T13:07:00;1.00;;;0.32;;
34136;SDS011;20414;50.860;4.382;2022-08-03T13:09:28;0.68;;;0.40;;
34136;SDS011;20414;50.860;4.382;2022-08-03T13:12:15;1.10;;;0.30;;
34136;SDS011;20414;50.860;4.382;2022-08-03T13:14:42;0.45;;;0.30;;
34136;SDS011;20414;50.860;4.382;2022-08-03T13:17:10;0.73;;;0.50;;
34136;SDS011;20414;50.860;4.382;2022-08-03T13:19:37;0.85;;;0.45;;
34136;SDS011;20414;50.860;4.382;2022-08-03T13:22:14;0.70;;;0.30;;
34136;SDS011;20414;50.860;4.382;2022-08-03T13:24:48;0.85;;;0.38;;
34136;SDS011;20414;50.860;4.382;2022-08-03T13:27:15;0.68;;;0.40;;
34136;SDS011;20414;50.860;4.382;2022-08-03T13:29:42;0.55;;;0.30;;
34136;SDS011;20414;50.860;4.382;2022-08-03T13:32:08;0.93;;;0.30;;
34136;SDS011;20414;50.860;4.382;2022-08-03T13:34:35;0.40;;;0.30;;
34136;SDS011;20414;50.860;4.382;2022-08-03T13:37:02;0.68;;;0.38;;
34136;SDS011;20414;50.860;4.382;2022-08-03T13:39:27;0.63;;;0.30;;
34136;SDS011;20414;50.860;4.382;2022-08-03T13:41:53;0.63;;;0.40;;
34136;SDS011;20414;50.860;4.382;2022-08-03T13:44:19;0.60;;;0.30;;
34136;SDS011;20414;50.860;4.382;2022-08-03T13:46:45;0.32;;;0.28;;
34136;SDS011;20414;50.860;4.382;2022-08-03T13:49:11;0.22;;;0.22;;
34136;SDS011;20414;50.860;4.382;2022-08-03T13:51:37;0.30;;;0.30;;
34136;SDS011;20414;50.860;4.382;2022-08-03T13:54:03;0.75;;;0.40;;
34136;SDS011;20414;50.860;4.382;2022-08-03T13:56:29;0.40;;;0.38;;
34136;SDS011;20414;50.860;4.382;2022-08-03T13:58:55;0.20;;;0.20;;
34136;SDS011;20414;50.860;4.382;2022-08-03T14:01:22;0.40;;;0.38;;
34136;SDS011;20414;50.860;4.382;2022-08-03T14:03:48;0.80;;;0.30;;
34136;SDS011;20414;50.860;4.382;2022-08-03T14:06:18;0.32;;;0.30;;
34136;SDS011;20414;50.860;4.382;2022-08-03T14:08:47;0.57;;;0.30;;
34136;SDS011;20414;50.860;4.382;2022-08-03T14:11:13;0.43;;;0.20;;
34136;SDS011;20414;50.860;4.382;2022-08-03T14:13:39;0.63;;;0.28;;
34136;SDS011;20414;50.860;4.382;2022-08-03T14:16:05;0.45;;;0.28;;
34136;SDS011;20414;50.860;4.382;2022-08-03T14:18:31;0.40;;;0.30;;
34136;SDS011;20414;50.860;4.382;2022-08-03T14:20:57;0.47;;;0.28;;
34136;SDS011;20414;50.860;4.382;2022-08-03T14:23:24;0.52;;;0.30;;
34136;SDS011;20414;50.860;4.382;2022-08-03T14:25:50;0.60;;;0.40;;
34136;SDS011;20414;50.860;4.382;2022-08-03T14:28:16;0.30;;;0.30;;
34136;SDS011;20414;50.860;4.382;2022-08-03T14:30:43;0.30;;;0.30;;
34136;SDS011;20414;50.860;4.382;2022-08-03T14:33:09;0.60;;;0.30;;
34136;SDS011;20414;50.860;4.382;2022-08-03T14:35:35;0.65;;;0.30;;
34136;SDS011;20414;50.860;4.382;2022-08-03T14:38:00;0.38;;;0.20;;
34136;SDS011;20414;50.860;4.382;2022-08-03T14:40:26;0.40;;;0.40;;
34136;SDS011;20414;50.860;4.382;2022-08-03T14:42:52;0.57;;;0.17;;
34136;SDS011;20414;50.860;4.382;2022-08-03T14:45:17;0.20;;;0.20;;
34136;SDS011;20414;50.860;4.382;2022-08-03T14:47:43;0.57;;;0.35;;
34136;SDS011;20414;50.860;4.382;2022-08-03T14:50:09;0.40;;;0.30;;
34136;SDS011;20414;50.860;4.382;2022-08-03T14:52:34;1.38;;;0.50;;
34136;SDS011;20414;50.860;4.382;2022-08-03T14:55:00;0.63;;;0.43;;
34136;SDS011;20414;50.860;4.382;2022-08-03T14:57:26;0.60;;;0.40;;
34136;SDS011;20414;50.860;4.382;2022-08-03T14:59:51;0.32;;;0.22;;
34136;SDS011;20414;50.860;4.382;2022-08-03T15:02:17;0.85;;;0.30;;
34136;SDS011;20414;50.860;4.382;2022-08-03T15:04:43;0.82;;;0.20;;
34136;SDS011;20414;50.860;4.382;2022-08-03T15:07:09;0.20;;;0.20;;
34136;SDS011;20414;50.860;4.382;2022-08-03T15:09:35;0.30;;;0.30;;
34136;SDS011;20414;50.860;4.382;2022-08-03T15:12:02;0.28;;;0.28;;
34136;SDS011;20414;50.860;4.382;2022-08-03T15:14:29;0.52;;;0.20;;
34136;SDS011;20414;50.860;4.382;2022-08-03T15:16:54;0.57;;;0.30;;
34136;SDS011;20414;50.860;4.382;2022-08-03T15:19:20;0.45;;;0.30;;
34136;SDS011;20414;50.860;4.382;2022-08-03T15:21:46;0.32;;;0.30;;
34136;SDS011;20414;50.860;4.382;2022-08-03T15:24:11;0.25;;;0.20;;
34136;SDS011;20414;50.860;4.382;2022-08-03T15:26:37;0.20;;;0.20;;
34136;SDS011;20414;50.860;4.382;2022-08-03T15:29:03;0.35;;;0.30;;
34136;SDS011;20414;50.860;4.382;2022-08-03T15:31:29;0.30;;;0.20;;
34136;SDS011;20414;50.860;4.382;2022-08-03T15:33:54;0.50;;;0.20;;
34136;SDS011;20414;50.860;4.382;2022-08-03T15:36:20;0.77;;;0.40;;
34136;SDS011;20414;50.860;4.382;2022-08-03T15:38:46;0.65;;;0.22;;
34136;SDS011;20414;50.860;4.382;2022-08-03T15:41:13;0.28;;;0.20;;
34136;SDS011;20414;50.860;4.382;2022-08-03T15:43:39;0.60;;;0.25;;
34136;SDS011;20414;50.860;4.382;2022-08-03T15:46:05;0.80;;;0.40;;
34136;SDS011;20414;50.860;4.382;2022-08-03T15:48:31;0.25;;;0.20;;
34136;SDS011;20414;50.860;4.382;2022-08-03T15:50:57;0.30;;;0.20;;
34136;SDS011;20414;50.860;4.382;2022-08-03T15:53:23;0.20;;;0.20;;
34136;SDS011;20414;50.860;4.382;2022-08-03T15:55:48;0.22;;;0.22;;
34136;SDS011;20414;50.860;4.382;2022-08-03T15:58:14;0.47;;;0.20;;
34136;SDS011;20414;50.860;4.382;2022-08-03T16:00:40;0.45;;;0.30;;
34136;SDS011;20414;50.860;4.382;2022-08-03T16:03:06;0.32;;;0.25;;